Time;durP1;ratioP1;P1;durP2;ratioP2;P2;SDS_P1;SDS_P2;PMS_P1;PMS_P2;Temp;Humidity;BMP_temperature;BMP_pressure;BME280_temperature;BME280_humidity;BME280_pressure;Samples;Min_cycle;Max_cycle;Signal;HPM_P1;HPM_P2
2023/06/02 00:01:58;;;;;;;9.20;5.80;;;;;;;17.93;47.89;100599.94;4087318;29;20031;-64
2023/06/02 00:04:02;;;;;;;12.75;7.43;;;;;;;17.93;48.16;100597.31;4090491;29;20390;-63
2023/06/02 00:06:08;;;;;;;11.88;7.90;;;;;;;18.05;48.42;100610.31;4078541;29;20178;-65
2023/06/02 00:08:12;;;;;;;12.48;7.30;;;;;;;17.99;48.36;100607.78;4090850;29;20044;-64
2023/06/02 00:10:15;;;;;;;11.77;6.93;;;;;;;17.86;48.77;100606.13;4071366;29;20451;-64
2023/06/02 00:12:18;;;;;;;12.38;7.40;;;;;;;17.86;48.92;100603.50;4094423;29;20073;-63
2023/06/02 00:14:22;;;;;;;12.82;7.72;;;;;;;17.82;48.96;100607.09;4070226;29;20495;-64
2023/06/02 00:16:26;;;;;;;14.45;8.00;;;;;;;17.75;48.99;100607.16;4087101;29;20040;-63
2023/06/02 00:18:33;;;;;;;12.10;7.35;;;;;;;17.75;49.15;100604.53;4093617;29;20510;-63
2023/06/02 00:20:36;;;;;;;13.23;7.18;;;;;;;17.61;49.54;100611.75;4091010;29;20039;-64
2023/06/02 00:22:39;;;;;;;11.27;7.18;;;;;;;17.47;49.84;100611.91;4088468;29;20453;-63
2023/06/02 00:24:42;;;;;;;14.38;7.32;;;;;;;17.41;50.19;100609.34;4090741;29;20039;-63
2023/06/02 00:26:45;;;;;;;14.23;7.10;;;;;;;17.41;50.13;100611.97;4090492;29;20039;-63
2023/06/02 00:28:48;;;;;;;10.05;6.82;;;;;;;17.39;50.33;100608.47;4089074;29;20094;-63
2023/06/02 00:30:53;;;;;;;11.25;6.57;;;;;;;17.43;50.27;100613.72;4093569;29;20066;-64
2023/06/02 00:32:56;;;;;;;;;;;;;;;17.38;50.33;100601.50;4084636;29;20035;-64
2023/06/02 00:34:59;;;;;;;14.65;7.30;;;;;;;17.23;50.91;100608.66;4071535;29;19966;-63
2023/06/02 00:37:02;;;;;;;10.85;6.72;;;;;;;17.10;50.98;100604.44;4093279;29;20414;-64
2023/06/02 00:39:05;;;;;;;9.70;6.20;;;;;;;17.04;51.38;100613.25;4074151;29;20040;-63
2023/06/02 00:41:08;;;;;;;12.07;7.15;;;;;;;17.01;51.21;100608.03;4064708;29;20068;-63
2023/06/02 00:43:11;;;;;;;12.70;6.95;;;;;;;17.03;51.45;100615.88;4074771;29;20044;-63
2023/06/02 00:45:14;;;;;;;10.40;7.70;;;;;;;17.12;51.08;100615.78;4076222;29;21249;-63
2023/06/02 00:47:18;;;;;;;13.02;7.78;;;;;;;17.06;51.29;100611.47;4071106;29;20059;-62
2023/06/02 00:49:21;;;;;;;11.05;6.82;;;;;;;17.00;51.54;100616.78;4073001;29;20078;-63
2023/06/02 00:51:24;;;;;;;10.73;7.60;;;;;;;16.95;51.51;100618.56;4073026;29;20043;-63
2023/06/02 00:53:27;;;;;;;13.18;7.40;;;;;;;16.88;51.61;100622.13;4069599;29;20047;-63
2023/06/02 00:55:31;;;;;;;11.50;7.57;;;;;;;16.81;51.82;100623.94;4070489;29;20055;-63
2023/06/02 00:57:38;;;;;;;11.68;7.65;;;;;;;16.84;51.82;100628.28;4039930;29;1036491;-63
2023/06/02 00:59:41;;;;;;;11.10;6.88;;;;;;;16.79;52.39;100627.44;4074654;29;20139;-62
2023/06/02 01:01:48;;;;;;;15.77;7.60;;;;;;;16.67;52.36;100634.53;4074350;29;20091;-63
2023/06/02 01:03:52;;;;;;;10.75;8.45;;;;;;;16.65;52.55;100643.34;4069681;29;20047;-63
2023/06/02 01:06:00;;;;;;;9.02;7.00;;;;;;;16.46;53.13;100634.72;4072571;29;20072;-63
2023/06/02 01:08:07;;;;;;;11.88;7.85;;;;;;;16.50;53.38;100628.53;4072641;29;20130;-62
2023/06/02 01:10:30;;;;;;;10.93;7.57;;;;;;;16.46;53.47;100634.72;4090404;29;20564;-62
2023/06/02 01:12:33;;;;;;;11.57;7.78;;;;;;;16.29;53.65;100638.31;4073908;29;20036;-63
2023/06/02 01:14:36;;;;;;;13.93;7.65;;;;;;;16.33;53.49;100640.03;4073024;29;20379;-63
2023/06/02 01:16:44;;;;;;;11.50;7.32;;;;;;;16.35;53.61;100640.03;4074170;29;20050;-62
2023/06/02 01:18:49;;;;;;;11.02;8.05;;;;;;;16.33;53.48;100647.06;4071299;29;20092;-63
2023/06/02 01:20:57;;;;;;;14.48;8.32;;;;;;;16.22;53.86;100652.34;4072580;29;20080;-63
2023/06/02 01:23:08;;;;;;;10.70;7.30;;;;;;;16.15;54.31;100656.78;4077533;29;20050;-63
2023/06/02 01:25:20;;;;;;;11.10;7.47;;;;;;;16.11;53.70;100643.69;4075586;29;20044;-62
2023/06/02 01:27:23;;;;;;;10.13;7.28;;;;;;;16.13;53.87;100641.91;4073067;29;20048;-63
2023/06/02 01:29:27;;;;;;;10.55;7.47;;;;;;;15.94;54.30;100652.50;4078621;29;20046;-62
2023/06/02 01:31:34;;;;;;;11.15;7.82;;;;;;;15.90;54.60;100645.53;4076408;29;20063;-63
2023/06/02 01:33:43;;;;;;;12.18;8.52;;;;;;;15.83;54.86;100649.09;4071799;29;20060;-61
2023/06/02 01:35:50;;;;;;;12.88;7.30;;;;;;;15.78;55.46;100650.81;4092299;29;20062;-63
2023/06/02 01:37:56;;;;;;;11.85;7.05;;;;;;;15.76;54.68;100647.31;4073851;29;20039;-63
2023/06/02 01:40:02;;;;;;;11.80;8.30;;;;;;;15.67;54.91;100650.84;4071581;29;20621;-63
2023/06/02 01:42:09;;;;;;;10.07;7.70;;;;;;;15.62;55.85;100650.84;4072834;29;20059;-63
2023/06/02 01:44:12;;;;;;;14.80;7.82;;;;;;;15.65;55.13;100637.75;4074774;29;20052;-64
2023/06/02 01:46:16;;;;;;;10.45;6.95;;;;;;;15.69;55.75;100647.31;4070340;29;20199;-65
2023/06/02 01:48:19;;;;;;;9.93;7.60;;;;;;;15.83;54.64;100646.47;4076330;29;20533;-62
2023/06/02 01:50:22;;;;;;;14.55;7.78;;;;;;;15.76;55.03;100645.56;4096704;29;20039;-62
2023/06/02 01:52:25;;;;;;;10.48;7.55;;;;;;;15.68;54.92;100650.84;4089341;29;20528;-62
2023/06/02 01:54:28;;;;;;;11.43;7.10;;;;;;;15.51;54.93;100639.56;4089226;29;20486;-63
2023/06/02 01:56:31;;;;;;;11.10;7.53;;;;;;;15.39;56.11;100648.31;4062371;29;20127;-62
2023/06/02 01:58:36;;;;;;;10.20;7.22;;;;;;;15.38;56.27;100650.94;4109285;23;20051;-63
2023/06/02 02:00:39;;;;;;;9.30;7.32;;;;;;;15.50;55.90;100651.75;4094565;29;20478;-64
2023/06/02 02:02:41;;;;;;;9.93;6.82;;;;;;;15.49;55.70;100654.38;4112808;28;20045;-63
2023/06/02 02:04:45;;;;;;;12.30;6.93;;;;;;;15.23;55.97;100646.59;4111805;28;20117;-63
2023/06/02 02:06:49;;;;;;;10.55;7.97;;;;;;;15.15;56.55;100650.09;4112008;28;20481;-63
2023/06/02 02:08:52;;;;;;;10.32;7.38;;;;;;;15.09;57.13;100644.88;4111200;28;20030;-63
2023/06/02 02:10:55;;;;;;;9.23;7.32;;;;;;;15.17;57.59;100644.84;4112193;28;20038;-64
2023/06/02 02:12:57;;;;;;;9.48;7.60;;;;;;;15.25;57.20;100643.09;4109397;28;20485;-64
2023/06/02 02:15:02;;;;;;;10.18;6.93;;;;;;;15.31;56.32;100653.56;4108219;28;20122;-64
2023/06/02 02:17:05;;;;;;;13.30;9.07;;;;;;;15.30;56.60;100638.75;4111573;28;20043;-64
2023/06/02 02:19:08;;;;;;;9.68;7.13;;;;;;;15.36;56.42;100649.19;4108048;28;20039;-64
2023/06/02 02:21:11;;;;;;;9.60;7.82;;;;;;;15.38;56.17;100650.94;4120298;28;20432;-64
2023/06/02 02:23:13;;;;;;;9.77;7.78;;;;;;;15.30;57.01;100651.84;4094496;29;20561;-63
2023/06/02 02:25:16;;;;;;;11.75;8.02;;;;;;;15.26;56.21;100649.19;4095001;29;20043;-63
2023/06/02 02:27:20;;;;;;;11.18;7.50;;;;;;;15.24;57.17;100648.34;4122370;28;20117;-63
2023/06/02 02:29:24;;;;;;;12.85;8.52;;;;;;;15.16;56.69;100662.31;4126593;28;20070;-63
2023/06/02 02:31:29;;;;;;;11.70;7.43;;;;;;;15.19;56.62;100658.84;4109395;28;20034;-64
2023/06/02 02:33:31;;;;;;;12.65;8.00;;;;;;;15.13;57.08;100656.22;4093388;29;20642;-64
2023/06/02 02:35:35;;;;;;;9.35;7.20;;;;;;;15.10;57.08;100658.81;4123346;28;20040;-63
2023/06/02 02:37:38;;;;;;;10.95;7.13;;;;;;;14.93;57.57;100664.97;4094344;29;20041;-64
2023/06/02 02:39:52;;;;;;;9.98;6.43;;;;;;;14.94;57.31;100652.75;4124746;28;20090;-63
2023/06/02 02:41:55;;;;;;;11.13;8.20;;;;;;;14.97;56.89;100658.84;4097414;29;20516;-63
2023/06/02 02:43:59;;;;;;;11.23;7.43;;;;;;;14.92;57.56;100660.63;4099832;28;20059;-63
2023/06/02 02:46:02;;;;;;;9.27;6.57;;;;;;;14.99;57.51;100678.03;4096781;28;20134;-63
2023/06/02 02:48:07;;;;;;;10.47;7.60;;;;;;;14.86;56.95;100668.44;4110970;28;20497;-63
2023/06/02 02:50:12;;;;;;;9.52;6.75;;;;;;;14.83;57.48;100668.44;4111388;28;20074;-63
2023/06/02 02:52:17;;;;;;;9.75;7.15;;;;;;;14.92;57.35;100664.97;4112596;28;20480;-63
2023/06/02 02:54:20;;;;;;;10.13;7.07;;;;;;;14.84;56.81;100670.22;4091785;29;20036;-63
2023/06/02 02:56:23;;;;;;;9.48;6.93;;;;;;;14.75;57.64;100665.84;4092790;28;20043;-63
2023/06/02 02:58:26;;;;;;;11.40;7.03;;;;;;;14.77;57.22;100663.22;4094065;29;20070;-63
2023/06/02 03:00:30;;;;;;;9.85;7.00;;;;;;;14.66;57.70;100663.22;4091245;29;20070;-63
2023/06/02 03:02:34;;;;;;;9.38;7.07;;;;;;;14.66;57.96;100666.72;4095155;29;20047;-63
2023/06/02 03:04:40;;;;;;;10.15;7.90;;;;;;;14.75;57.10;100667.59;4121637;28;20039;-63
2023/06/02 03:06:44;;;;;;;10.90;6.75;;;;;;;14.68;57.18;100677.19;4106372;28;20056;-63
2023/06/02 03:08:49;;;;;;;;;;;;;;;14.68;57.32;100673.69;4119244;28;20428;-64
2023/06/02 03:10:52;;;;;;;10.27;6.35;;;;;;;14.52;57.99;100684.09;4100961;28;19922;-63
2023/06/02 03:12:55;;;;;;;11.45;7.32;;;;;;;14.47;57.69;100686.72;4098386;28;20498;-63
2023/06/02 03:15:01;;;;;;;8.98;6.38;;;;;;;14.34;58.13;100670.97;4096945;28;20043;-63
2023/06/02 03:17:05;;;;;;;15.43;7.72;;;;;;;14.41;58.29;100676.25;4094196;29;20039;-63
2023/06/02 03:19:10;;;;;;;14.00;7.97;;;;;;;14.39;58.22;100677.09;4125676;28;20440;-64
2023/06/02 03:21:17;;;;;;;11.70;7.93;;;;;;;14.42;57.99;100671.88;4109636;28;20062;-63
2023/06/02 03:23:21;;;;;;;10.77;8.00;;;;;;;14.40;57.87;100684.09;4108132;28;20046;-63
2023/06/02 03:25:24;;;;;;;8.27;5.80;;;;;;;14.35;57.89;100670.13;4096785;28;20404;-63
2023/06/02 03:27:30;;;;;;;10.23;6.50;;;;;;;14.34;57.90;100684.06;4108549;28;20038;-63
2023/06/02 03:29:33;;;;;;;9.90;6.70;;;;;;;14.23;57.76;100671.81;4092290;29;20040;-63
2023/06/02 03:31:37;;;;;;;10.18;6.97;;;;;;;14.25;57.98;100683.19;4121215;28;20034;-63
2023/06/02 03:33:40;;;;;;;8.80;6.57;;;;;;;14.25;58.27;100692.75;4108699;28;20059;-63
2023/06/02 03:35:43;;;;;;;12.10;7.32;;;;;;;14.20;58.12;100682.28;4117957;28;20034;-63
2023/06/02 03:37:48;;;;;;;12.75;7.50;;;;;;;14.26;58.30;100692.75;4093706;28;20039;-64
2023/06/02 03:39:51;;;;;;;16.67;8.43;;;;;;;14.25;58.05;100693.66;4115272;28;20234;-63
2023/06/02 03:41:55;;;;;;;9.15;6.70;;;;;;;14.28;58.03;100685.81;4124863;28;20436;-64
2023/06/02 03:43:58;;;;;;;13.65;7.47;;;;;;;14.37;58.19;100694.53;4105215;28;20046;-63
2023/06/02 03:46:01;;;;;;;12.40;7.70;;;;;;;14.24;57.82;100697.13;4080846;29;20490;-64
2023/06/02 03:48:05;;;;;;;8.60;6.43;;;;;;;14.11;57.98;100692.72;4093151;29;20071;-64
2023/06/02 03:50:08;;;;;;;10.95;7.18;;;;;;;14.13;58.34;100694.47;4117458;28;20106;-64
2023/06/02 03:52:11;;;;;;;9.32;7.03;;;;;;;14.25;58.31;100701.50;4099393;28;20053;-64
2023/06/02 03:54:16;;;;;;;11.43;7.50;;;;;;;14.14;58.53;100693.59;4108877;28;20489;-64
2023/06/02 03:56:19;;;;;;;;;;;;;;;14.16;58.45;100700.56;4120281;28;20047;-63
2023/06/02 03:58:24;;;;;;;10.98;7.10;;;;;;;14.07;58.53;100704.03;4110686;28;19977;-64
2023/06/02 04:00:28;;;;;;;11.93;7.20;;;;;;;14.00;58.46;100697.03;4080602;29;20043;-64
2023/06/02 04:02:31;;;;;;;12.40;7.15;;;;;;;14.05;58.49;100701.41;4088556;29;20462;-63
2023/06/02 04:04:36;;;;;;;12.52;7.30;;;;;;;14.03;58.90;100697.94;4111913;28;20031;-63
2023/06/02 04:06:40;;;;;;;11.07;8.18;;;;;;;14.11;59.31;100708.41;4093973;28;20497;-58
2023/06/02 04:08:43;;;;;;;14.40;8.07;;;;;;;14.17;58.89;100704.94;4079567;29;20185;-58
2023/06/02 04:10:47;;;;;;;12.75;8.07;;;;;;;14.37;58.07;100698.03;4113666;28;20310;-58
2023/06/02 04:12:50;;;;;;;13.23;8.18;;;;;;;14.37;58.12;100704.97;4110714;28;20053;-56
2023/06/02 04:14:54;;;;;;;14.57;7.70;;;;;;;14.38;58.03;100706.75;4091519;28;20122;-56
2023/06/02 04:16:57;;;;;;;10.93;6.55;;;;;;;14.41;58.19;100701.50;4098827;28;20041;-58
2023/06/02 04:19:01;;;;;;;9.18;7.03;;;;;;;14.68;57.76;100707.72;4106652;28;20528;-58
2023/06/02 04:21:04;;;;;;;13.77;7.88;;;;;;;14.93;57.00;100706.84;4110937;28;20069;-58
2023/06/02 04:23:07;;;;;;;14.27;8.68;;;;;;;14.80;56.97;100713.81;4094713;28;20138;-57
2023/06/02 04:25:10;;;;;;;16.17;7.88;;;;;;;14.77;56.36;100705.97;4094690;28;20045;-58
2023/06/02 04:27:25;;;;;;;11.43;7.20;;;;;;;14.48;57.14;100714.63;4110188;28;20049;-58
2023/06/02 04:29:29;;;;;;;14.10;9.15;;;;;;;14.41;57.45;100718.09;4114437;28;20042;-58
2023/06/02 04:31:39;;;;;;;12.90;7.97;;;;;;;14.45;57.59;100714.59;4093614;28;20035;-58
2023/06/02 04:33:43;;;;;;;12.40;7.13;;;;;;;14.36;58.65;100713.72;4122539;28;20377;-59
2023/06/02 04:35:47;;;;;;;13.23;8.57;;;;;;;14.55;57.86;100714.63;4093595;29;20035;-58
2023/06/02 04:37:50;;;;;;;12.65;8.65;;;;;;;14.55;57.85;100707.66;4095321;28;20039;-57
2023/06/02 04:39:55;;;;;;;11.50;8.02;;;;;;;14.48;58.49;100713.72;4102200;28;20051;-58
2023/06/02 04:41:59;;;;;;;14.90;8.43;;;;;;;14.61;57.89;100720.75;4106941;28;20121;-59
2023/06/02 04:44:05;;;;;;;13.07;8.55;;;;;;;14.59;57.70;100717.25;4107069;28;20031;-58
2023/06/02 04:46:10;;;;;;;17.65;8.55;;;;;;;14.48;58.31;100713.72;4095337;29;20122;-58
2023/06/02 04:48:14;;;;;;;17.08;8.63;;;;;;;14.58;58.38;100720.72;4092981;28;20133;-59
2023/06/02 04:50:17;;;;;;;12.32;8.68;;;;;;;14.68;57.99;100720.81;4096224;29;20043;-59
2023/06/02 04:52:20;;;;;;;15.27;8.45;;;;;;;14.80;57.52;100724.28;4110151;28;20073;-58
2023/06/02 04:54:23;;;;;;;10.82;8.55;;;;;;;14.72;57.63;100719.91;4106814;28;20035;-58
2023/06/02 04:56:31;;;;;;;14.25;7.68;;;;;;;14.73;57.92;100719.91;4095024;29;20530;-57
2023/06/02 04:58:35;;;;;;;13.13;7.97;;;;;;;14.73;57.85;100734.75;4108620;28;20043;-62
2023/06/02 05:00:39;;;;;;;14.32;9.32;;;;;;;14.65;57.29;100726.91;4089920;29;20039;-62
2023/06/02 05:02:43;;;;;;;11.82;8.13;;;;;;;14.73;57.50;100732.13;4119588;28;20069;-61
2023/06/02 05:04:46;;;;;;;12.35;8.50;;;;;;;14.69;57.76;100740.84;4110873;28;20512;-61
2023/06/02 05:07:06;;;;;;;14.93;8.05;;;;;;;14.76;56.95;100729.50;4115114;28;20556;-61
2023/06/02 05:09:09;;;;;;;15.38;7.80;;;;;;;14.64;57.28;100730.38;4109478;28;20051;-61
2023/06/02 05:11:12;;;;;;;11.02;8.05;;;;;;;14.57;57.68;100729.47;4113770;28;20071;-62
2023/06/02 05:13:17;;;;;;;;;;;;;;;14.74;57.18;100731.28;4097699;29;20047;-61
2023/06/02 05:15:22;;;;;;;17.90;8.73;;;;;;;14.81;56.27;100730.41;4124920;28;20276;-62
2023/06/02 05:17:28;;;;;;;19.35;9.55;;;;;;;14.79;56.97;100727.78;4113832;28;20428;-61
2023/06/02 05:19:34;;;;;;;14.05;7.40;;;;;;;14.72;56.71;100743.47;4102509;28;20047;-62
2023/06/02 05:21:37;;;;;;;17.55;7.70;;;;;;;14.62;56.24;100739.97;4098368;29;20039;-61
2023/06/02 05:23:40;;;;;;;12.57;8.20;;;;;;;14.60;56.32;100733.81;4116080;28;20039;-61
2023/06/02 05:25:44;;;;;;;14.90;7.53;;;;;;;14.55;56.47;100736.44;4117994;28;20030;-61
2023/06/02 05:27:46;;;;;;;12.73;7.93;;;;;;;14.55;55.87;100740.81;4110927;28;20039;-61
2023/06/02 05:29:50;;;;;;;12.27;7.15;;;;;;;14.47;56.39;100746.00;4115649;28;20069;-62
2023/06/02 05:31:54;;;;;;;;;;;;;;;14.58;56.26;100744.28;4096895;28;20086;-62
2023/06/02 05:33:59;;;;;;;8.38;6.28;;;;;;;14.68;56.21;100745.22;4109305;28;19976;-62
2023/06/02 05:36:01;;;;;;;10.32;8.10;;;;;;;14.73;55.14;100753.06;4106040;28;20506;-62
2023/06/02 05:38:06;;;;;;;;;;;;;;;14.79;55.57;100740.88;4118270;28;20043;-62
2023/06/02 05:40:11;;;;;;;15.02;7.75;;;;;;;14.79;54.35;100740.88;4116681;28;19989;-62
2023/06/02 05:42:19;;;;;;;12.68;7.70;;;;;;;14.71;55.22;100741.75;4114963;28;20042;-62
2023/06/02 05:44:22;;;;;;;15.13;8.30;;;;;;;14.73;54.87;100745.22;4100275;28;20098;-61
2023/06/02 05:46:25;;;;;;;12.68;7.68;;;;;;;14.82;54.40;100739.97;4096581;28;20126;-62
2023/06/02 05:48:28;;;;;;;14.57;8.00;;;;;;;14.81;54.90;100743.50;4120505;28;20109;-61
2023/06/02 05:50:33;;;;;;;18.45;7.20;;;;;;;14.92;55.17;100747.00;4123165;28;20034;-62
2023/06/02 05:52:36;;;;;;;13.95;8.00;;;;;;;14.95;54.44;100748.72;4106325;28;20121;-62
2023/06/02 05:54:39;;;;;;;11.52;7.72;;;;;;;14.99;54.08;100747.88;4097911;29;20133;-61
2023/06/02 05:56:42;;;;;;;16.83;7.75;;;;;;;14.91;54.30;100746.97;4107757;28;20577;-62
2023/06/02 05:58:46;;;;;;;10.82;7.28;;;;;;;14.99;53.60;100748.72;4097164;29;20035;-62
2023/06/02 06:00:50;;;;;;;13.27;7.80;;;;;;;14.97;54.50;100752.25;4098722;28;20043;-61
2023/06/02 06:02:53;;;;;;;15.02;8.25;;;;;;;15.11;53.96;100754.84;4097141;28;20039;-61
2023/06/02 06:05:03;;;;;;;16.15;7.00;;;;;;;15.14;53.37;100745.25;4098548;28;20045;-61
2023/06/02 06:07:07;;;;;;;12.27;7.97;;;;;;;15.11;53.62;100765.31;4121767;28;20456;-61
2023/06/02 06:09:11;;;;;;;11.70;8.38;;;;;;;15.11;53.43;100758.38;4096591;28;20477;-61
2023/06/02 06:11:13;;;;;;;16.30;6.95;;;;;;;15.18;53.04;100748.75;4097315;28;20125;-61
2023/06/02 06:13:16;;;;;;;10.90;7.35;;;;;;;15.44;52.77;100747.88;4113484;28;20083;-61
2023/06/02 06:15:19;;;;;;;16.13;7.28;;;;;;;15.35;52.72;100752.22;4112379;28;20408;-61
2023/06/02 06:17:23;;;;;;;14.98;7.50;;;;;;;15.26;52.48;100751.34;4093481;28;20043;-62
2023/06/02 06:19:26;;;;;;;13.43;7.78;;;;;;;15.34;52.27;100755.72;4104550;28;20082;-61
2023/06/02 06:21:29;;;;;;;15.60;8.07;;;;;;;15.27;53.00;100751.34;4096872;28;20067;-61
2023/06/02 06:23:33;;;;;;;12.35;6.60;;;;;;;15.22;52.94;100754.88;4097080;28;20055;-61
2023/06/02 06:25:36;;;;;;;13.93;7.75;;;;;;;15.41;52.09;100761.84;4096689;29;20039;-62
2023/06/02 06:27:40;;;;;;;14.38;7.10;;;;;;;15.47;52.06;100768.81;4111690;28;20042;-61
2023/06/02 06:29:43;;;;;;;14.65;7.78;;;;;;;15.52;52.21;100764.44;4109819;28;20055;-61
2023/06/02 06:31:47;;;;;;;14.50;7.28;;;;;;;15.54;52.37;100765.31;4107799;28;20125;-61
2023/06/02 06:33:50;;;;;;;14.35;7.00;;;;;;;15.61;52.58;100761.81;4111927;28;20039;-62
2023/06/02 06:35:53;;;;;;;18.75;7.28;;;;;;;15.81;51.01;100760.91;4112337;28;20041;-61
2023/06/02 06:37:56;;;;;;;15.55;7.68;;;;;;;15.80;51.38;100760.06;4095100;28;20130;-62
2023/06/02 06:40:00;;;;;;;16.45;6.90;;;;;;;15.77;51.90;100757.41;4093093;29;20051;-62
2023/06/02 06:42:06;;;;;;;14.98;7.97;;;;;;;15.89;51.03;100759.16;4093361;29;20043;-62
2023/06/02 06:44:13;;;;;;;14.10;7.47;;;;;;;15.97;51.09;100772.25;4122705;28;20100;-61
2023/06/02 06:46:16;;;;;;;15.23;8.70;;;;;;;15.96;50.71;100763.50;4095178;29;20050;-62
2023/06/02 06:48:20;;;;;;;14.43;7.05;;;;;;;15.94;51.64;100767.00;4122548;28;20047;-62
2023/06/02 06:50:23;;;;;;;14.32;7.47;;;;;;;16.07;50.71;100767.84;4113173;28;20122;-62
2023/06/02 06:52:27;;;;;;;12.65;7.38;;;;;;;16.26;50.53;100760.78;4111035;28;20512;-62
2023/06/02 06:54:30;;;;;;;13.02;6.88;;;;;;;16.38;50.12;100766.84;4093045;28;20049;-62
2023/06/02 06:56:35;;;;;;;14.18;7.70;;;;;;;16.39;49.73;100770.34;4107197;28;20034;-61
2023/06/02 06:58:39;;;;;;;22.33;8.65;;;;;;;16.44;49.70;100765.06;4112965;28;20113;-62
2023/06/02 07:00:42;;;;;;;17.80;7.97;;;;;;;16.56;49.60;100762.38;4095729;28;20083;-61
2023/06/02 07:02:45;;;;;;;14.80;7.10;;;;;;;16.64;49.15;100776.31;4092245;29;20307;-61
2023/06/02 07:04:48;;;;;;;14.63;6.50;;;;;;;16.64;49.35;100767.56;4111589;28;20045;-62
2023/06/02 07:06:51;;;;;;;10.73;5.95;;;;;;;16.57;48.88;100766.72;4110730;28;20045;-61
2023/06/02 07:08:54;;;;;;;18.23;8.65;;;;;;;16.62;49.24;100775.47;4091116;29;20046;-61
2023/06/02 07:10:57;;;;;;;18.15;8.32;;;;;;;16.66;48.79;100771.94;4110134;28;20473;-62
2023/06/02 07:13:01;;;;;;;12.13;7.20;;;;;;;16.65;49.11;100780.69;4120567;28;20042;-61
2023/06/02 07:15:07;;;;;;;19.10;7.78;;;;;;;16.69;49.16;100778.91;4108356;28;20062;-61
2023/06/02 07:17:10;;;;;;;13.93;7.20;;;;;;;16.76;48.36;100791.13;4110865;28;20042;-61
2023/06/02 07:19:15;;;;;;;13.60;6.80;;;;;;;16.78;48.25;100784.13;4090571;28;20054;-61
2023/06/02 07:21:18;;;;;;;16.17;7.72;;;;;;;16.78;48.22;100788.47;4106050;28;20047;-61
2023/06/02 07:23:21;;;;;;;11.73;7.20;;;;;;;16.83;48.49;100786.72;4101434;28;20405;-61
2023/06/02 07:25:24;;;;;;;14.98;7.43;;;;;;;16.95;48.11;100786.66;4108231;28;20129;-61
2023/06/02 07:27:27;;;;;;;14.88;7.78;;;;;;;17.06;47.28;100787.47;4101312;28;20390;-62
2023/06/02 07:29:31;;;;;;;16.60;7.70;;;;;;;16.81;48.09;100775.38;4110808;28;20066;-61
2023/06/02 07:31:34;;;;;;;14.90;7.97;;;;;;;16.82;48.10;100782.34;4118059;28;20528;-61
2023/06/02 07:33:37;;;;;;;11.93;6.45;;;;;;;16.86;48.15;100770.94;4112320;28;20043;-61
2023/06/02 07:35:40;;;;;;;12.30;7.35;;;;;;;17.06;47.83;100778.72;4110745;28;20031;-61
2023/06/02 07:37:43;;;;;;;12.07;6.78;;;;;;;17.07;47.97;100777.84;4110847;28;20548;-61
2023/06/02 07:39:46;;;;;;;10.73;6.00;;;;;;;16.97;47.67;100774.41;4113057;28;20505;-61
2023/06/02 07:41:49;;;;;;;12.20;6.30;;;;;;;17.02;47.47;100783.09;4110962;28;20586;-61
2023/06/02 07:43:52;;;;;;;12.98;6.85;;;;;;;16.93;47.46;100783.19;4121453;28;20042;-61
2023/06/02 07:45:56;;;;;;;12.13;7.30;;;;;;;16.93;47.71;100780.56;4109400;28;20073;-61
2023/06/02 07:47:59;;;;;;;14.18;7.13;;;;;;;16.97;47.26;100777.03;4105712;28;20045;-61
2023/06/02 07:50:02;;;;;;;13.98;7.85;;;;;;;17.08;47.38;100772.56;4108526;28;20047;-61
2023/06/02 07:52:06;;;;;;;11.85;6.80;;;;;;;17.18;47.26;100777.75;4111908;28;20523;-61
2023/06/02 07:54:09;;;;;;;12.70;6.80;;;;;;;17.26;47.21;100778.56;4103247;28;20039;-61
2023/06/02 07:56:11;;;;;;;13.10;7.00;;;;;;;17.28;46.60;100774.16;4109686;28;21166;-61
2023/06/02 07:58:14;;;;;;;12.70;7.00;;;;;;;17.36;46.30;100781.97;4093866;28;20043;-61
2023/06/02 08:00:21;;;;;;;14.23;6.93;;;;;;;17.27;47.04;100770.66;4090259;29;20165;-61
2023/06/02 08:02:25;;;;;;;14.15;6.10;;;;;;;17.47;46.67;100769.59;4115672;28;20072;-61
2023/06/02 08:07:33;;;;;;;13.82;6.65;;;;;;;17.53;45.95;100766.91;4108142;28;20531;-61
2023/06/02 08:09:38;;;;;;;11.68;7.07;;;;;;;17.57;45.83;100757.25;4110433;28;20045;-62
2023/06/02 08:11:41;;;;;;;10.07;5.97;;;;;;;17.76;45.29;100763.19;4107409;28;20070;-61
2023/06/02 08:13:44;;;;;;;15.18;7.18;;;;;;;17.54;45.73;100759.91;4091258;28;20119;-61
2023/06/02 08:15:47;;;;;;;19.92;7.47;;;;;;;17.68;45.48;100757.13;4113646;28;20058;-61
2023/06/02 08:18:12;;;;;;;22.05;7.10;;;;;;;17.72;45.96;100762.34;4103029;28;20408;-62
2023/06/02 08:20:16;;;;;;;13.32;6.25;;;;;;;17.86;45.04;100753.41;4114473;28;20121;-62
2023/06/02 08:22:20;;;;;;;16.50;7.35;;;;;;;17.88;45.19;100760.41;4119924;28;20133;-62
2023/06/02 08:24:24;;;;;;;14.20;6.90;;;;;;;17.88;44.92;100754.28;4109365;28;20089;-63
2023/06/02 08:26:29;;;;;;;13.77;7.00;;;;;;;17.87;44.84;100752.53;4111769;28;20390;-63
2023/06/02 08:28:33;;;;;;;11.30;7.53;;;;;;;17.90;44.78;100739.38;4109103;28;20046;-63
2023/06/02 08:30:36;;;;;;;13.32;7.65;;;;;;;17.92;45.37;100746.38;4094889;28;20070;-63
2023/06/02 08:32:39;;;;;;;12.57;6.72;;;;;;;18.06;45.35;100742.72;4118755;28;20054;-60
2023/06/02 08:34:47;;;;;;;13.88;6.80;;;;;;;18.12;44.78;100743.53;4109118;28;20123;-60
2023/06/02 08:36:56;;;;;;;17.00;6.72;;;;;;;18.21;45.20;100739.00;4109044;28;20122;-60
2023/06/02 08:39:05;;;;;;;11.13;7.28;;;;;;;18.55;44.09;100736.81;4104500;28;20057;-61
2023/06/02 08:41:13;;;;;;;12.52;6.03;;;;;;;18.37;44.30;100730.03;4110666;28;20065;-60
2023/06/02 08:43:16;;;;;;;13.70;6.78;;;;;;;18.42;44.12;100732.59;4122614;28;20064;-60
2023/06/02 08:45:22;;;;;;;12.40;6.47;;;;;;;18.42;44.34;100728.19;4109246;28;20070;-60
2023/06/02 08:47:28;;;;;;;10.60;6.68;;;;;;;18.43;44.11;100732.59;4110104;28;20043;-60
2023/06/02 08:49:35;;;;;;;18.15;7.47;;;;;;;18.38;44.33;100730.91;4110281;28;20043;-60
2023/06/02 08:51:40;;;;;;;15.70;7.57;;;;;;;18.47;44.48;100734.28;4095064;29;20078;-64
2023/06/02 08:53:46;;;;;;;11.90;7.90;;;;;;;18.64;43.01;100730.53;4109580;28;20497;-64
2023/06/02 08:55:50;;;;;;;12.02;7.07;;;;;;;18.61;43.74;100735.84;4111748;28;20062;-64
2023/06/02 08:57:53;;;;;;;10.68;6.00;;;;;;;18.61;43.75;100730.56;4110803;28;20117;-64
2023/06/02 08:59:55;;;;;;;12.77;6.57;;;;;;;18.84;43.70;100733.72;4112288;28;20050;-62
2023/06/02 09:02:00;;;;;;;10.93;7.22;;;;;;;18.93;43.04;100727.47;4112651;28;20054;-62
2023/06/02 09:04:03;;;;;;;17.15;7.15;;;;;;;18.95;43.19;100722.19;4112844;28;20067;-61
2023/06/02 09:06:20;;;;;;;15.57;6.70;;;;;;;18.95;43.04;100719.53;4113715;28;20035;-60
2023/06/02 09:08:25;;;;;;;16.17;6.78;;;;;;;18.97;43.69;100718.63;4110805;28;20052;-61
2023/06/02 09:10:29;;;;;;;15.07;6.57;;;;;;;19.12;43.50;100725.41;4115964;28;20043;-62
2023/06/02 09:12:47;;;;;;;12.85;6.45;;;;;;;19.33;42.64;100721.53;4096815;28;20087;-62
2023/06/02 09:15:08;;;;;;;17.17;6.93;;;;;;;19.41;42.33;100716.13;4109530;28;20045;-62
2023/06/02 09:17:25;;;;;;;17.52;7.25;;;;;;;19.40;42.84;100719.66;4092029;29;20493;-62
2023/06/02 09:19:49;;;;;;;16.67;8.00;;;;;;;19.34;42.13;100720.63;4114937;28;20041;-62
2023/06/02 09:21:53;;;;;;;14.75;7.00;;;;;;;19.17;42.12;100723.56;4099489;29;20055;-61
2023/06/02 09:23:58;;;;;;;;;;;;;;;19.25;42.54;100723.44;4093611;28;20063;-62
2023/06/02 09:26:19;;;;;;;15.48;7.28;;;;;;;19.42;42.00;100720.50;4113497;28;19922;-62
2023/06/02 09:28:24;;;;;;;11.88;6.63;;;;;;;19.37;42.24;100719.72;4115290;28;20031;-62
2023/06/02 09:30:28;;;;;;;13.02;7.25;;;;;;;19.51;41.75;100719.47;4108871;28;20047;-62
2023/06/02 09:32:36;;;;;;;11.82;6.90;;;;;;;19.62;41.58;100717.47;4109267;28;20162;-62
2023/06/02 09:34:40;;;;;;;15.60;7.05;;;;;;;19.46;41.34;100714.25;4094669;28;20063;-65
2023/06/02 09:36:43;;;;;;;13.35;6.65;;;;;;;19.52;42.25;100715.91;4114775;28;20485;-62
2023/06/02 09:38:46;;;;;;;13.98;6.25;;;;;;;19.68;41.69;100708.56;4085759;29;20051;-62